Time;durP1;ratioP1;P1;durP2;ratioP2;P2;SDS_P1;SDS_P2;PMS_P1;PMS_P2;Temp;Humidity;BMP_temperature;BMP_pressure;BME280_temperature;BME280_humidity;BME280_pressure;Samples;Min_cycle;Max_cycle;Signal;HPM_P1;HPM_P2
2022/02/01 00:01:38;;;;;;;;;7.00;4.00;;;;;;;;5089183;27;45289;-69
2022/02/01 00:04:06;;;;;;;;;5.25;5.25;;;;;;;;5076735;27;45462;-69
2022/02/01 00:19:43;;;;;;;;;6.00;4.50;;;;;;;;5076890;27;45562;-70
2022/02/01 00:35:53;;;;;;;;;4.00;3.00;;;;;;;;5013689;28;45422;-68
2022/02/01 00:38:23;;;;;;;;;3.75;3.00;;;;;;;;5013692;28;47360;-69
2022/02/01 00:40:54;;;;;;;;;6.00;4.25;;;;;;;;5025904;28;45293;-70
2022/02/01 00:43:19;;;;;;;;;3.00;3.00;;;;;;;;5022075;28;45382;-69
2022/02/01 00:45:45;;;;;;;;;6.00;5.00;;;;;;;;5014404;28;45307;-69
2022/02/01 00:48:10;;;;;;;;;3.25;3.25;;;;;;;;5017439;28;45465;-69
2022/02/01 00:50:35;;;;;;;;;5.00;5.00;;;;;;;;5023992;28;45439;-69
2022/02/01 00:53:00;;;;;;;;;3.00;2.00;;;;;;;;5013944;28;45483;-70
2022/02/01 00:55:26;;;;;;;;;4.50;3.75;;;;;;;;5014317;28;45533;-69
2022/02/01 00:57:51;;;;;;;;;5.75;5.00;;;;;;;;5014156;28;46162;-69
2022/02/01 01:00:16;;;;;;;;;5.50;3.00;;;;;;;;5016907;28;45453;-69
2022/02/01 01:02:42;;;;;;;;;4.50;4.00;;;;;;;;5032837;28;45443;-69
2022/02/01 01:05:07;;;;;;;;;5.50;4.75;;;;;;;;5072858;28;45387;-69
2022/02/01 01:07:33;;;;;;;;;3.75;3.75;;;;;;;;5075830;28;47440;-69
2022/02/01 01:10:00;;;;;;;;;4.00;3.00;;;;;;;;5076371;28;45370;-69
2022/02/01 01:12:27;;;;;;;;;4.50;4.25;;;;;;;;5078037;27;45467;-70
2022/02/01 01:44:47;;;;;;;;;4.00;4.00;;;;;;;;5073831;28;45518;-70
2022/02/01 01:55:30;;;;;;;;;5.00;5.00;;;;;;;;5079760;27;45458;-69
2022/02/01 01:57:55;;;;;;;;;4.50;4.00;;;;;;;;5072756;27;48166;-69
2022/02/01 02:00:39;;;;;;;;;6.75;3.75;;;;;;;;5076664;27;45537;-69
2022/02/01 02:03:04;;;;;;;;;6.75;5.00;;;;;;;;5071577;28;45813;-69
2022/02/01 02:05:30;;;;;;;;;3.50;3.50;;;;;;;;5071235;28;45486;-69
2022/02/01 02:07:55;;;;;;;;;4.00;4.00;;;;;;;;5073680;28;45292;-69
2022/02/01 02:10:27;;;;;;;;;5.50;5.50;;;;;;;;5077771;27;46659;-69
2022/02/01 02:15:31;;;;;;;;;4.75;4.75;;;;;;;;5073756;28;45410;-69
2022/02/01 02:18:00;;;;;;;;;3.25;3.25;;;;;;;;5071559;28;45451;-69
2022/02/01 02:20:25;;;;;;;;;3.75;3.75;;;;;;;;5073073;28;46411;-68
2022/02/01 02:22:50;;;;;;;;;5.50;5.25;;;;;;;;5073113;28;45267;-69
2022/02/01 02:25:15;;;;;;;;;3.00;3.00;;;;;;;;5075323;27;45572;-69
2022/02/01 02:27:41;;;;;;;;;5.25;4.00;;;;;;;;5071616;28;45392;-69
2022/02/01 02:30:06;;;;;;;;;6.00;6.00;;;;;;;;5071660;27;46461;-69
2022/02/01 02:32:32;;;;;;;;;4.25;3.25;;;;;;;;5071228;28;45522;-69
2022/02/01 02:34:57;;;;;;;;;3.75;3.50;;;;;;;;5055455;28;45434;-69
2022/02/01 02:37:28;;;;;;;;;5.00;5.00;;;;;;;;5074734;28;45454;-69
2022/02/01 02:40:17;;;;;;;;;3.25;3.00;;;;;;;;5055109;28;45563;-69
2022/02/01 02:45:26;;;;;;;;;4.00;4.00;;;;;;;;5076968;27;45549;-69
2022/02/01 02:47:54;;;;;;;;;5.50;3.25;;;;;;;;5074001;27;45453;-69
2022/02/01 02:50:22;;;;;;;;;6.75;5.00;;;;;;;;5071704;28;45393;-69
2022/02/01 02:52:47;;;;;;;;;4.00;3.75;;;;;;;;5072981;28;45555;-69
2022/02/01 02:55:12;;;;;;;;;6.25;5.00;;;;;;;;5074993;28;45339;-69
2022/02/01 02:57:38;;;;;;;;;5.25;4.00;;;;;;;;5071372;28;45429;-69
2022/02/01 03:00:03;;;;;;;;;4.00;4.00;;;;;;;;5071372;28;45595;-69
2022/02/01 03:02:28;;;;;;;;;5.50;4.50;;;;;;;;5071953;28;45258;-69
2022/02/01 03:04:53;;;;;;;;;9.00;5.75;;;;;;;;5075396;27;45287;-69
2022/02/01 03:07:19;;;;;;;;;4.00;4.00;;;;;;;;5075205;27;45329;-69
2022/02/01 03:09:44;;;;;;;;;3.00;3.00;;;;;;;;5071125;27;45315;-69
2022/02/01 03:12:14;;;;;;;;;5.75;3.00;;;;;;;;5070182;28;45455;-69
2022/02/01 03:22:21;;;;;;;;;3.75;3.75;;;;;;;;5073984;28;45369;-69
2022/02/01 03:24:46;;;;;;;;;5.00;5.00;;;;;;;;5074703;27;45359;-70
2022/02/01 03:27:12;;;;;;;;;4.25;4.00;;;;;;;;5073362;28;45576;-69
2022/02/01 03:29:37;;;;;;;;;5.50;3.00;;;;;;;;5073453;27;45636;-70
2022/02/01 03:32:02;;;;;;;;;4.75;4.25;;;;;;;;5074306;28;45510;-69
2022/02/01 03:34:28;;;;;;;;;4.25;3.00;;;;;;;;5078491;28;45600;-69
2022/02/01 03:36:53;;;;;;;;;4.00;4.00;;;;;;;;5075987;27;45263;-69
2022/02/01 03:39:18;;;;;;;;;5.75;4.25;;;;;;;;5075536;27;45582;-69
2022/02/01 03:41:44;;;;;;;;;4.75;3.50;;;;;;;;5075629;28;45422;-69
2022/02/01 03:44:11;;;;;;;;;4.00;4.00;;;;;;;;5078220;27;45327;-69
2022/02/01 03:46:36;;;;;;;;;6.25;5.00;;;;;;;;5076601;27;45411;-69
2022/02/01 03:49:02;;;;;;;;;4.50;3.75;;;;;;;;5078211;27;47142;-69
2022/02/01 03:51:27;;;;;;;;;4.00;3.00;;;;;;;;5077798;27;45461;-69
2022/02/01 03:53:52;;;;;;;;;4.00;4.00;;;;;;;;5083055;27;45276;-70
2022/02/01 03:56:17;;;;;;;;;2.00;2.00;;;;;;;;5083283;27;45445;-69
2022/02/01 03:58:43;;;;;;;;;4.25;2.25;;;;;;;;5075642;27;46312;-69
2022/02/01 04:01:08;;;;;;;;;4.00;4.00;;;;;;;;5074670;28;45280;-69
2022/02/01 04:03:33;;;;;;;;;3.50;3.50;;;;;;;;5075560;27;45481;-69
2022/02/01 04:05:58;;;;;;;;;4.00;4.00;;;;;;;;5063179;28;45366;-69
2022/02/01 04:08:24;;;;;;;;;6.00;3.00;;;;;;;;5074187;27;46308;-69
2022/02/01 04:10:50;;;;;;;;;3.75;3.00;;;;;;;;5086420;27;45583;-69
2022/02/01 04:13:16;;;;;;;;;4.00;4.00;;;;;;;;5077084;28;45475;-69
2022/02/01 04:15:42;;;;;;;;;5.50;4.00;;;;;;;;5074076;28;45563;-69
2022/02/01 04:18:08;;;;;;;;;2.75;2.75;;;;;;;;5074456;28;45577;-69
2022/02/01 04:20:33;;;;;;;;;2.50;1.75;;;;;;;;5075008;28;45340;-69
2022/02/01 04:22:58;;;;;;;;;2.50;2.50;;;;;;;;5074168;28;45485;-69
2022/02/01 04:25:24;;;;;;;;;4.25;4.25;;;;;;;;5077217;28;45511;-69
2022/02/01 04:27:49;;;;;;;;;5.00;5.00;;;;;;;;5083965;27;46275;-69
2022/02/01 04:30:15;;;;;;;;;5.25;4.00;;;;;;;;5079242;27;45439;-69
2022/02/01 04:32:42;;;;;;;;;4.75;2.50;;;;;;;;5082908;27;45457;-69
2022/02/01 04:35:09;;;;;;;;;3.50;3.50;;;;;;;;5074399;27;45394;-69
2022/02/01 04:37:34;;;;;;;;;4.00;4.00;;;;;;;;5075737;28;46647;-69
2022/02/01 04:40:00;;;;;;;;;4.50;4.50;;;;;;;;5075063;27;45314;-69
2022/02/01 04:42:29;;;;;;;;;6.50;3.50;;;;;;;;5073000;28;45685;-69
2022/02/01 04:44:54;;;;;;;;;3.25;3.25;;;;;;;;5074553;28;45436;-69
2022/02/01 04:47:19;;;;;;;;;6.25;4.75;;;;;;;;5074402;28;47082;-69
2022/02/01 04:49:45;;;;;;;;;4.00;3.50;;;;;;;;5074635;27;45523;-70
2022/02/01 04:52:10;;;;;;;;;3.25;3.00;;;;;;;;5090368;27;45324;-70
2022/02/01 04:54:36;;;;;;;;;3.50;3.25;;;;;;;;5077005;27;45464;-69
2022/02/01 04:57:01;;;;;;;;;3.25;3.25;;;;;;;;5071793;27;45343;-69
2022/02/01 04:59:26;;;;;;;;;3.00;3.00;;;;;;;;5074527;28;45578;-69
2022/02/01 05:01:51;;;;;;;;;4.00;4.00;;;;;;;;5074592;27;45517;-69
2022/02/01 05:04:19;;;;;;;;;6.75;4.50;;;;;;;;5075314;28;45530;-69
2022/02/01 05:06:48;;;;;;;;;4.25;4.25;;;;;;;;5075852;27;46377;-69
2022/02/01 05:09:13;;;;;;;;;5.00;4.00;;;;;;;;5084858;27;45350;-69
2022/02/01 05:11:38;;;;;;;;;4.75;4.75;;;;;;;;5084780;27;45383;-69
2022/02/01 05:14:13;;;;;;;;;5.00;3.00;;;;;;;;5072965;28;45366;-70
2022/02/01 05:16:56;;;;;;;;;5.25;4.00;;;;;;;;5075153;28;46640;-69
2022/02/01 05:19:32;;;;;;;;;3.00;3.00;;;;;;;;5075756;28;45411;-69
2022/02/01 05:22:01;;;;;;;;;4.00;4.00;;;;;;;;5073478;27;45415;-68
2022/02/01 05:24:27;;;;;;;;;9.00;3.25;;;;;;;;5076167;27;45539;-69
2022/02/01 05:26:57;;;;;;;;;4.00;3.00;;;;;;;;5070967;28;46501;-69
2022/02/01 05:29:23;;;;;;;;;3.75;3.75;;;;;;;;5071713;27;45391;-68
2022/02/01 05:31:50;;;;;;;;;6.00;4.00;;;;;;;;5081885;27;45541;-70
2022/02/01 05:34:15;;;;;;;;;4.00;4.00;;;;;;;;5076047;28;45485;-70
2022/02/01 05:36:40;;;;;;;;;4.75;3.75;;;;;;;;5072420;28;47146;-70
2022/02/01 05:39:13;;;;;;;;;4.75;3.50;;;;;;;;5077149;27;45360;-70
2022/02/01 05:41:38;;;;;;;;;4.00;4.00;;;;;;;;5075662;27;45384;-69
2022/02/01 05:44:04;;;;;;;;;4.00;4.00;;;;;;;;5076055;27;45470;-70
2022/02/01 05:46:29;;;;;;;;;5.25;4.25;;;;;;;;5074621;28;47523;-70
2022/02/01 05:48:54;;;;;;;;;4.00;3.75;;;;;;;;5076519;27;45529;-70
2022/02/01 05:51:22;;;;;;;;;3.50;3.50;;;;;;;;5072456;27;45446;-70
2022/02/01 05:53:47;;;;;;;;;3.00;3.00;;;;;;;;5071993;28;45419;-70
2022/02/01 05:56:13;;;;;;;;;3.00;3.00;;;;;;;;5081045;27;45470;-70
2022/02/01 05:58:38;;;;;;;;;4.00;4.00;;;;;;;;5079531;27;45430;-69
2022/02/01 06:01:03;;;;;;;;;5.25;4.00;;;;;;;;5074691;28;45534;-69
2022/02/01 06:03:28;;;;;;;;;3.00;3.00;;;;;;;;5072049;28;45441;-70
2022/02/01 06:05:54;;;;;;;;;4.50;3.00;;;;;;;;5073264;28;46074;-69
2022/02/01 06:08:19;;;;;;;;;4.25;3.00;;;;;;;;5072003;27;45920;-69
2022/02/01 06:10:44;;;;;;;;;3.75;3.75;;;;;;;;5074611;28;45314;-69
2022/02/01 06:13:09;;;;;;;;;2.75;2.75;;;;;;;;5072922;28;45336;-69
2022/02/01 06:15:37;;;;;;;;;3.00;3.00;;;;;;;;5073044;28;45593;-70
2022/02/01 06:18:03;;;;;;;;;2.25;2.25;;;;;;;;5073100;28;45481;-69
2022/02/01 06:20:28;;;;;;;;;4.50;3.25;;;;;;;;5075473;27;45462;-70
2022/02/01 06:22:53;;;;;;;;;8.00;4.00;;;;;;;;5072280;28;45558;-69
2022/02/01 06:25:31;;;;;;;;;3.75;3.75;;;;;;;;5074296;28;46214;-70
2022/02/01 06:27:56;;;;;;;;;3.50;3.50;;;;;;;;5084836;27;45466;-69
2022/02/01 06:30:21;;;;;;;;;6.00;3.75;;;;;;;;5077304;27;45491;-70
2022/02/01 06:32:46;;;;;;;;;2.25;2.25;;;;;;;;5072260;27;45469;-71
2022/02/01 06:35:11;;;;;;;;;5.00;3.50;;;;;;;;5072159;28;46195;-70
2022/02/01 06:37:37;;;;;;;;;2.25;2.25;;;;;;;;5074215;28;45367;-69
2022/02/01 06:40:03;;;;;;;;;5.50;4.00;;;;;;;;5071617;28;45200;-70
2022/02/01 06:42:28;;;;;;;;;1.25;1.00;;;;;;;;5071689;27;45309;-67
2022/02/01 06:44:53;;;;;;;;;4.25;3.50;;;;;;;;5072409;28;45364;-69
2022/02/01 06:47:18;;;;;;;;;4.00;4.00;;;;;;;;5073245;28;45661;-68
2022/02/01 06:49:46;;;;;;;;;2.00;2.00;;;;;;;;5073731;28;45360;-68
2022/02/01 06:52:11;;;;;;;;;4.00;4.00;;;;;;;;5071168;27;45422;-69
2022/02/01 06:54:36;;;;;;;;;2.00;2.00;;;;;;;;5063251;28;45897;-68
2022/02/01 06:57:04;;;;;;;;;4.75;3.00;;;;;;;;5068658;28;45576;-69
2022/02/01 06:59:30;;;;;;;;;5.00;4.50;;;;;;;;5071787;27;45429;-69
2022/02/01 07:01:55;;;;;;;;;4.00;4.00;;;;;;;;5075962;28;45537;-68
2022/02/01 07:04:20;;;;;;;;;3.00;3.00;;;;;;;;5072542;27;46480;-68
2022/02/01 07:06:45;;;;;;;;;1.00;1.00;;;;;;;;5076361;28;45469;-69
2022/02/01 07:09:11;;;;;;;;;3.25;3.25;;;;;;;;5078024;27;45476;-70
2022/02/01 07:11:38;;;;;;;;;3.75;2.00;;;;;;;;5079292;27;45470;-70
2022/02/01 07:14:03;;;;;;;;;2.75;2.75;;;;;;;;5078570;27;46360;-68
2022/02/01 07:16:29;;;;;;;;;3.00;3.00;;;;;;;;5094479;27;45374;-68
2022/02/01 07:18:54;;;;;;;;;3.25;2.00;;;;;;;;5078756;27;45203;-68
2022/02/01 07:21:20;;;;;;;;;2.25;2.25;;;;;;;;5076640;27;45324;-68
2022/02/01 07:23:45;;;;;;;;;2.00;2.00;;;;;;;;5074555;27;47333;-67
2022/02/01 07:26:10;;;;;;;;;4.00;3.00;;;;;;;;5076449;27;45292;-68
2022/02/01 07:28:36;;;;;;;;;3.25;2.00;;;;;;;;5082254;27;45380;-67
2022/02/01 07:31:02;;;;;;;;;2.00;2.00;;;;;;;;5076676;27;45621;-67
2022/02/01 07:33:28;;;;;;;;;2.25;2.25;;;;;;;;5077835;27;46520;-68
2022/02/01 07:35:53;;;;;;;;;2.00;2.00;;;;;;;;5083509;27;45431;-68
2022/02/01 07:38:21;;;;;;;;;3.50;3.00;;;;;;;;5076423;27;45840;-68
2022/02/01 07:40:47;;;;;;;;;2.00;2.00;;;;;;;;5075813;28;45408;-68
2022/02/01 07:43:14;;;;;;;;;2.50;2.50;;;;;;;;5077693;27;46168;-67
2022/02/01 07:45:41;;;;;;;;;3.00;3.00;;;;;;;;5075066;28;45434;-68
2022/02/01 07:48:06;;;;;;;;;3.75;3.75;;;;;;;;5072994;27;45767;-68
2022/02/01 07:50:32;;;;;;;;;2.50;2.50;;;;;;;;5072923;28;45478;-68
2022/02/01 07:52:58;;;;;;;;;3.00;3.00;;;;;;;;5074929;28;46309;-67
2022/02/01 07:55:24;;;;;;;;;2.00;2.00;;;;;;;;5081532;27;45494;-67
2022/02/01 07:57:49;;;;;;;;;2.00;2.00;;;;;;;;5074334;28;45375;-68
2022/02/01 08:00:14;;;;;;;;;3.00;2.25;;;;;;;;5075876;27;45595;-68
2022/02/01 08:02:40;;;;;;;;;3.25;2.00;;;;;;;;5057175;28;45860;-67
2022/02/01 08:05:05;;;;;;;;;3.25;3.00;;;;;;;;5075300;28;45543;-67
2022/02/01 08:07:31;;;;;;;;;4.75;2.00;;;;;;;;5084842;27;45377;-67
2022/02/01 08:09:59;;;;;;;;;4.00;4.00;;;;;;;;5083921;27;45673;-67
2022/02/01 08:17:33;;;;;;;;;2.75;2.75;;;;;;;;5077650;27;45310;-67
2022/02/01 08:20:02;;;;;;;;;2.00;1.75;;;;;;;;5080789;27;45562;-68
2022/02/01 08:25:12;;;;;;;;;4.00;3.00;;;;;;;;5075071;28;45371;-68
2022/02/01 08:27:40;;;;;;;;;2.50;2.50;;;;;;;;5075630;27;45607;-68
2022/02/01 08:30:06;;;;;;;;;2.75;2.75;;;;;;;;5073223;28;45362;-68
2022/02/01 08:32:32;;;;;;;;;3.75;2.00;;;;;;;;5074047;27;46626;-68
2022/02/01 08:34:57;;;;;;;;;3.00;3.00;;;;;;;;5073962;27;45368;-68
2022/02/01 08:37:22;;;;;;;;;2.00;2.00;;;;;;;;5082956;27;45410;-68
2022/02/01 08:39:48;;;;;;;;;3.00;3.00;;;;;;;;5084804;27;45434;-68
2022/02/01 08:42:13;;;;;;;;;1.75;1.75;;;;;;;;5079071;27;46401;-68
2022/02/01 08:44:39;;;;;;;;;1.25;1.25;;;;;;;;5074505;28;45183;-68
2022/02/01 08:47:04;;;;;;;;;3.00;2.50;;;;;;;;5074935;27;45332;-68
2022/02/01 08:49:29;;;;;;;;;4.00;4.00;;;;;;;;5076961;28;45336;-68
2022/02/01 08:52:01;;;;;;;;;5.25;3.50;;;;;;;;5073531;28;46667;-68
2022/02/01 08:54:29;;;;;;;;;1.25;1.25;;;;;;;;5074838;28;45446;-68
2022/02/01 08:59:38;;;;;;;;;2.00;2.00;;;;;;;;5072762;28;45507;-67
2022/02/01 09:02:03;;;;;;;;;2.00;2.00;;;;;;;;5072767;28;45273;-68
2022/02/01 09:04:29;;;;;;;;;4.00;3.00;;;;;;;;5092758;27;45348;-68
2022/02/01 09:06:55;;;;;;;;;2.25;2.25;;;;;;;;5076161;27;45214;-68
2022/02/01 09:09:20;;;;;;;;;2.50;1.00;;;;;;;;5083371;27;45376;-68
2022/02/01 09:11:46;;;;;;;;;2.50;1.50;;;;;;;;5084148;27;45480;-68
2022/02/01 09:14:11;;;;;;;;;3.50;2.50;;;;;;;;5071574;28;45418;-68
2022/02/01 09:16:36;;;;;;;;;2.00;2.00;;;;;;;;5075949;28;45341;-68
2022/02/01 09:19:02;;;;;;;;;2.75;2.00;;;;;;;;5076684;27;45379;-68
2022/02/01 09:21:27;;;;;;;;;4.25;3.25;;;;;;;;5073789;28;45387;-68
2022/02/01 09:23:52;;;;;;;;;3.00;3.00;;;;;;;;5074012;28;45456;-68
2022/02/01 09:26:18;;;;;;;;;2.00;2.00;;;;;;;;5074462;28;45532;-67
2022/02/01 09:28:43;;;;;;;;;5.00;3.00;;;;;;;;5074566;28;45358;-68
2022/02/01 09:31:10;;;;;;;;;2.00;2.00;;;;;;;;5080069;27;46138;-67
2022/02/01 09:33:36;;;;;;;;;3.75;3.00;;;;;;;;5076364;27;45477;-68
2022/02/01 09:36:01;;;;;;;;;5.50;1.50;;;;;;;;5076459;27;48193;-67
2022/02/01 09:38:30;;;;;;;;;3.00;1.00;;;;;;;;5075208;28;45440;-68
2022/02/01 09:40:56;;;;;;;;;2.00;2.00;;;;;;;;5075567;28;46593;-68
2022/02/01 09:43:21;;;;;;;;;3.00;3.00;;;;;;;;5075373;28;45414;-68
2022/02/01 09:45:46;;;;;;;;;2.00;2.00;;;;;;;;5073713;28;45332;-67
2022/02/01 09:48:11;;;;;;;;;2.00;2.00;;;;;;;;5071692;28;46362;-68
2022/02/01 09:50:37;;;;;;;;;4.25;2.75;;;;;;;;5071317;28;45459;-68
2022/02/01 09:53:03;;;;;;;;;2.00;2.00;;;;;;;;5072606;27;45490;-67
2022/02/01 09:55:28;;;;;;;;;2.50;2.00;;;;;;;;5076140;27;45427;-67
2022/02/01 09:57:54;;;;;;;;;4.00;2.00;;;;;;;;5072051;27;45257;-68
2022/02/01 10:00:22;;;;;;;;;3.50;3.00;;;;;;;;5067187;28;46386;-68
2022/02/01 10:02:53;;;;;;;;;2.00;1.25;;;;;;;;5072695;27;45411;-68
2022/02/01 10:05:18;;;;;;;;;2.00;2.00;;;;;;;;5073597;28;45390;-67
2022/02/01 10:07:50;;;;;;;;;2.00;2.00;;;;;;;;5074061;27;45431;-68
2022/02/01 10:10:15;;;;;;;;;2.00;2.00;;;;;;;;5074057;27;45522;-68
2022/02/01 10:12:42;;;;;;;;;2.00;2.00;;;;;;;;5073058;28;45506;-68
2022/02/01 10:15:17;;;;;;;;;2.25;2.25;;;;;;;;5073104;27;45466;-68
2022/02/01 10:17:47;;;;;;;;;4.50;3.00;;;;;;;;5073071;28;46225;-68
2022/02/01 10:20:13;;;;;;;;;3.25;3.25;;;;;;;;5074512;27;46817;-68
2022/02/01 10:22:38;;;;;;;;;2.00;2.00;;;;;;;;5077889;27;45403;-68
2022/02/01 10:25:19;;;;;;;;;2.50;2.50;;;;;;;;5074288;28;45333;-68
2022/02/01 10:27:54;;;;;;;;;1.00;1.00;;;;;;;;5073034;28;45555;-68
2022/02/01 10:30:25;;;;;;;;;1.50;1.00;;;;;;;;5076042;27;45768;-68
2022/02/01 10:35:26;;;;;;;;;2.00;2.00;;;;;;;;5079295;27;45518;-68
2022/02/01 10:37:59;;;;;;;;;2.00;2.00;;;;;;;;5083261;27;45423;-68
2022/02/01 10:40:34;;;;;;;;;2.75;0.75;;;;;;;;5078764;27;46158;-68
2022/02/01 10:43:04;;;;;;;;;2.00;2.00;;;;;;;;5078905;27;45532;-68
2022/02/01 10:45:30;;;;;;;;;2.00;2.00;;;;;;;;5079130;27;45560;-68
2022/02/01 10:47:56;;;;;;;;;1.75;1.00;;;;;;;;5077319;28;45524;-68
2022/02/01 10:50:25;;;;;;;;;3.00;2.50;;;;;;;;5057052;28;46497;-68
2022/02/01 10:52:51;;;;;;;;;1.50;1.50;;;;;;;;5080519;27;45492;-67
2022/02/01 10:55:18;;;;;;;;;1.00;1.00;;;;;;;;5078615;28;45446;-68
2022/02/01 10:57:43;;;;;;;;;2.25;1.00;;;;;;;;5076352;28;45515;-68
2022/02/01 11:00:09;;;;;;;;;1.50;1.50;;;;;;;;5080837;27;45460;-68
2022/02/01 11:02:41;;;;;;;;;2.50;2.00;;;;;;;;5087857;27;45410;-68
2022/02/01 11:05:09;;;;;;;;;4.50;4.00;;;;;;;;5076167;27;45575;-68
2022/02/01 11:07:34;;;;;;;;;2.00;2.00;;;;;;;;5077611;28;45366;-68
2022/02/01 11:09:59;;;;;;;;;4.25;2.00;;;;;;;;5076724;27;45480;-68
2022/02/01 11:12:32;;;;;;;;;2.00;1.00;;;;;;;;5059189;28;45329;-67
2022/02/01 11:14:57;;;;;;;;;2.00;2.00;;;;;;;;5077417;27;45524;-68
2022/02/01 11:17:22;;;;;;;;;3.75;3.00;;;;;;;;5073934;28;45403;-68
2022/02/01 11:19:54;;;;;;;;;3.50;2.25;;;;;;;;5081134;27;45755;-67
2022/02/01 11:22:23;;;;;;;;;2.00;2.00;;;;;;;;5077161;28;45398;-68
2022/02/01 11:24:53;;;;;;;;;3.25;3.25;;;;;;;;5076078;28;45320;-67
2022/02/01 11:27:29;;;;;;;;;1.00;1.00;;;;;;;;5074601;28;45351;-68
2022/02/01 11:32:30;;;;;;;;;2.75;2.00;;;;;;;;5076023;28;45540;-68
2022/02/01 11:35:03;;;;;;;;;2.75;2.75;;;;;;;;5076049;28;45333;-68
2022/02/01 11:37:28;;;;;;;;;2.50;1.50;;;;;;;;5072601;28;45449;-67
2022/02/01 11:39:54;;;;;;;;;4.75;2.00;;;;;;;;5077507;27;45289;-68
2022/02/01 11:42:20;;;;;;;;;3.25;2.25;;;;;;;;5075417;28;45276;-67
2022/02/01 11:44:46;;;;;;;;;1.00;1.00;;;;;;;;5074020;28;45474;-67
2022/02/01 11:47:17;;;;;;;;;2.00;2.00;;;;;;;;5080907;27;45358;-68
2022/02/01 11:49:48;;;;;;;;;2.25;2.25;;;;;;;;5076467;27;46381;-68
2022/02/01 11:52:16;;;;;;;;;4.00;3.00;;;;;;;;5086123;27;45350;-68
2022/02/01 11:54:42;;;;;;;;;4.75;2.00;;;;;;;;5077131;27;45402;-68
2022/02/01 11:57:15;;;;;;;;;2.75;1.50;;;;;;;;5081051;27;45426;-68
2022/02/01 11:59:50;;;;;;;;;2.00;2.00;;;;;;;;5077471;27;45919;-67
2022/02/01 12:02:23;;;;;;;;;4.00;3.25;;;;;;;;5075240;27;45425;-67
2022/02/01 12:04:48;;;;;;;;;2.25;1.00;;;;;;;;5075818;27;45586;-67
2022/02/01 12:07:14;;;;;;;;;5.00;2.00;;;;;;;;5077757;28;45458;-67
2022/02/01 12:09:40;;;;;;;;;3.00;3.00;;;;;;;;5073493;27;46480;-67
2022/02/01 12:12:06;;;;;;;;;1.75;1.75;;;;;;;;5072309;27;45624;-68
2022/02/01 12:14:31;;;;;;;;;3.00;2.50;;;;;;;;5074168;27;45529;-68
2022/02/01 12:16:57;;;;;;;;;3.75;2.00;;;;;;;;5074880;27;45605;-67
2022/02/01 12:19:39;;;;;;;;;1.00;1.00;;;;;;;;5083061;27;45623;-67
2022/02/01 12:22:09;;;;;;;;;2.00;1.00;;;;;;;;5076180;28;45367;-67
2022/02/01 12:24:35;;;;;;;;;3.00;1.25;;;;;;;;5075045;28;45385;-67
2022/02/01 12:27:01;;;;;;;;;2.00;1.50;;;;;;;;5074580;27;45315;-67
2022/02/01 12:29:26;;;;;;;;;2.00;1.00;;;;;;;;5074854;28;45390;-68
2022/02/01 12:31:53;;;;;;;;;2.75;1.50;;;;;;;;5075153;28;45333;-68
2022/02/01 12:34:19;;;;;;;;;1.75;1.75;;;;;;;;5077352;27;45699;-68
2022/02/01 12:36:53;;;;;;;;;2.00;2.00;;;;;;;;5073654;28;45414;-67
2022/02/01 12:39:24;;;;;;;;;1.75;1.75;;;;;;;;5074557;28;46689;-67
2022/02/01 12:47:19;;;;;;;;;2.25;2.25;;;;;;;;5073503;27;45580;-68
2022/02/01 12:49:45;;;;;;;;;1.25;1.00;;;;;;;;5072795;28;46254;-67
2022/02/01 12:52:24;;;;;;;;;2.50;1.00;;;;;;;;5075977;28;45426;-67
2022/02/01 12:55:06;;;;;;;;;2.00;2.00;;;;;;;;5073110;28;45356;-67
2022/02/01 12:57:33;;;;;;;;;2.00;2.00;;;;;;;;5075848;27;45485;-67
2022/02/01 13:00:00;;;;;;;;;2.00;2.00;;;;;;;;5073045;28;46265;-68
2022/02/01 13:02:30;;;;;;;;;1.25;1.25;;;;;;;;5074354;28;45550;-67
2022/02/01 13:04:57;;;;;;;;;2.00;2.00;;;;;;;;5074191;27;45552;-67
2022/02/01 13:07:47;;;;;;;;;2.75;2.75;;;;;;;;5075594;28;45502;-68
2022/02/01 13:13:09;;;;;;;;;1.25;1.00;;;;;;;;5072899;27;45288;-67
2022/02/01 13:15:41;;;;;;;;;3.00;1.50;;;;;;;;5072968;27;45486;-67
2022/02/01 13:20:56;;;;;;;;;2.25;2.00;;;;;;;;5072610;28;45486;-68
2022/02/01 13:23:22;;;;;;;;;2.50;2.50;;;;;;;;5074275;27;45598;-68
2022/02/01 13:25:47;;;;;;;;;2.25;1.25;;;;;;;;5075136;28;45369;-67
2022/02/01 13:28:14;;;;;;;;;1.00;1.00;;;;;;;;5073793;27;45302;-67
2022/02/01 13:30:40;;;;;;;;;3.00;2.00;;;;;;;;5073190;28;46277;-68
2022/02/01 13:33:07;;;;;;;;;1.75;1.75;;;;;;;;5066748;28;45655;-68
2022/02/01 13:35:34;;;;;;;;;1.00;1.00;;;;;;;;5076361;27;45384;-68
2022/02/01 13:38:08;;;;;;;;;3.00;3.00;;;;;;;;5072295;28;45244;-68
2022/02/01 13:40:33;;;;;;;;;1.00;1.00;;;;;;;;5072457;27;45400;-68
2022/02/01 13:42:59;;;;;;;;;1.00;1.00;;;;;;;;5074086;27;45490;-68
2022/02/01 13:45:36;;;;;;;;;2.00;1.00;;;;;;;;5073811;27;45395;-69
2022/02/01 13:48:02;;;;;;;;;1.75;1.75;;;;;;;;5072386;27;45553;-68
2022/02/01 13:50:27;;;;;;;;;2.00;1.00;;;;;;;;5073404;28;46334;-68
2022/02/01 13:53:00;;;;;;;;;4.00;1.00;;;;;;;;5073582;28;45418;-68
2022/02/01 13:55:27;;;;;;;;;2.25;1.25;;;;;;;;5082528;27;45449;-68
2022/02/01 13:58:02;;;;;;;;;1.00;1.00;;;;;;;;5074013;27;45702;-68
2022/02/01 14:00:31;;;;;;;;;1.00;1.00;;;;;;;;5069159;28;46171;-68
2022/02/01 14:03:03;;;;;;;;;2.00;1.25;;;;;;;;5073744;27;45546;-68
2022/02/01 14:05:32;;;;;;;;;1.75;1.25;;;;;;;;5072486;28;45499;-68
2022/02/01 14:26:40;;;;;;;;;3.00;1.25;;;;;;;;5073363;27;45518;-68
2022/02/01 14:29:08;;;;;;;;;1.25;1.25;;;;;;;;5072716;28;45356;-68
2022/02/01 14:34:20;;;;;;;;;1.00;1.00;;;;;;;;5075212;27;45397;-68
2022/02/01 14:36:48;;;;;;;;;2.00;2.00;;;;;;;;5072732;28;45176;-67
2022/02/01 14:42:52;;;;;;;;;2.00;2.00;;;;;;;;5071708;28;45554;-68
2022/02/01 14:44:48;;;;;;;;;1.00;1.00;;;;;;;;5072707;28;45534;-68
2022/02/01 14:47:18;;;;;;;;;1.25;1.00;;;;;;;;5074899;27;45482;-68
2022/02/01 14:49:44;;;;;;;;;1.00;1.00;;;;;;;;5073747;28;45469;-68
2022/02/01 14:52:09;;;;;;;;;1.00;1.00;;;;;;;;5073663;27;45749;-68
2022/02/01 14:54:44;;;;;;;;;2.50;1.00;;;;;;;;5073640;27;45491;-68
2022/02/01 15:13:14;;;;;;;;;0.00;0.00;;;;;;;;5072879;28;45252;-68
2022/02/01 15:15:39;;;;;;;;;1.25;1.25;;;;;;;;5073144;28;45530;-68
2022/02/01 15:18:04;;;;;;;;;2.00;1.25;;;;;;;;5071396;28;45209;-68
2022/02/01 15:20:29;;;;;;;;;2.25;2.25;;;;;;;;5079122;27;45531;-68
2022/02/01 15:22:54;;;;;;;;;3.50;1.75;;;;;;;;5076129;27;46433;-68
2022/02/01 15:25:20;;;;;;;;;1.00;1.00;;;;;;;;5077148;27;45483;-68
2022/02/01 15:27:45;;;;;;;;;2.00;1.00;;;;;;;;5075995;27;45419;-68
2022/02/01 15:30:10;;;;;;;;;1.00;1.00;;;;;;;;5080637;27;45462;-68
2022/02/01 15:32:36;;;;;;;;;0.75;0.75;;;;;;;;5050357;28;46219;-68
2022/02/01 15:35:01;;;;;;;;;1.00;1.00;;;;;;;;5074523;28;45320;-68
2022/02/01 15:37:30;;;;;;;;;3.00;1.00;;;;;;;;5077774;28;45431;-68
2022/02/01 15:56:49;;;;;;;;;1.50;1.00;;;;;;;;4963407;28;45479;-68
2022/02/01 15:59:11;;;;;;;;;2.00;1.00;;;;;;;;4940523;28;45363;-68
2022/02/01 16:01:43;;;;;;;;;3.25;2.00;;;;;;;;4975040;28;45393;-68
2022/02/01 16:04:09;;;;;;;;;1.50;1.50;;;;;;;;4967904;28;45430;-68
2022/02/01 16:06:36;;;;;;;;;1.50;1.50;;;;;;;;4972671;28;45385;-68
2022/02/01 16:09:21;;;;;;;;;3.00;2.00;;;;;;;;4971502;28;45418;-68
2022/02/01 16:11:47;;;;;;;;;2.50;1.75;;;;;;;;4972845;28;45564;-68
2022/02/01 16:14:13;;;;;;;;;2.75;1.75;;;;;;;;4972836;28;45556;-68
2022/02/01 16:16:39;;;;;;;;;3.25;1.25;;;;;;;;4965981;28;45418;-69
2022/02/01 16:19:05;;;;;;;;;2.75;1.75;;;;;;;;4962081;28;45536;-68
2022/02/01 16:21:30;;;;;;;;;2.25;2.00;;;;;;;;4966109;28;45446;-68
2022/02/01 16:23:56;;;;;;;;;2.00;2.00;;;;;;;;4995278;28;46209;-68
2022/02/01 16:26:21;;;;;;;;;1.00;1.00;;;;;;;;5018216;28;45614;-68
2022/02/01 16:28:47;;;;;;;;;2.00;2.00;;;;;;;;5063078;28;45390;-68
2022/02/01 16:31:15;;;;;;;;;2.00;2.00;;;;;;;;5073621;27;45468;-68
2022/02/01 16:33:40;;;;;;;;;4.00;3.00;;;;;;;;5071921;27;46194;-68
2022/02/01 16:36:05;;;;;;;;;2.75;1.00;;;;;;;;5074762;28;45518;-68
2022/02/01 16:38:30;;;;;;;;;2.00;2.00;;;;;;;;5074719;27;45561;-68
2022/02/01 16:40:55;;;;;;;;;1.00;1.00;;;;;;;;5075192;27;45565;-69
2022/02/01 16:43:21;;;;;;;;;2.75;2.00;;;;;;;;5081962;27;45467;-68
2022/02/01 16:45:47;;;;;;;;;1.25;1.25;;;;;;;;5076036;27;45387;-68
2022/02/01 16:48:14;;;;;;;;;1.75;1.75;;;;;;;;5072549;28;45574;-68
2022/02/01 16:50:40;;;;;;;;;3.75;2.00;;;;;;;;5073278;28;45467;-68
2022/02/01 16:53:10;;;;;;;;;1.75;1.75;;;;;;;;5073329;28;45881;-68
2022/02/01 16:58:20;;;;;;;;;3.75;2.25;;;;;;;;5073596;27;45574;-68
2022/02/01 17:00:45;;;;;;;;;1.75;1.00;;;;;;;;5074891;27;45521;-68
2022/02/01 17:03:11;;;;;;;;;2.00;2.00;;;;;;;;5074066;28;47359;-68
2022/02/01 17:05:36;;;;;;;;;1.00;1.00;;;;;;;;5074673;28;45407;-68
2022/02/01 17:08:01;;;;;;;;;1.00;1.00;;;;;;;;5081891;27;45403;-68
2022/02/01 17:10:26;;;;;;;;;2.50;1.00;;;;;;;;5076109;28;45534;-68
2022/02/01 17:13:14;;;;;;;;;2.00;2.00;;;;;;;;5075022;27;46568;-68
2022/02/01 17:23:33;;;;;;;;;1.00;1.00;;;;;;;;5074573;27;45359;-68
2022/02/01 17:25:58;;;;;;;;;1.75;1.75;;;;;;;;5074097;28;45391;-68
2022/02/01 17:28:23;;;;;;;;;4.25;2.75;;;;;;;;5076267;28;45592;-68
2022/02/01 17:30:48;;;;;;;;;1.25;1.25;;;;;;;;5076126;27;45438;-68
2022/02/01 17:33:14;;;;;;;;;2.25;1.75;;;;;;;;5057142;28;48139;-68
2022/02/01 17:35:39;;;;;;;;;1.00;1.00;;;;;;;;5072819;27;45500;-68